sensor_id;sensor_type;location;lat;lon;timestamp;temperature;humidity
61253;DHT22;47127;47.516;8.596;2023-04-06T00:01:38;4.60;99.90
61253;DHT22;47127;47.516;8.596;2023-04-06T00:04:05;4.70;99.90
61253;DHT22;47127;47.516;8.596;2023-04-06T00:06:33;4.70;99.90
61253;DHT22;47127;47.516;8.596;2023-04-06T00:08:59;4.70;99.90
61253;DHT22;47127;47.516;8.596;2023-04-06T00:11:25;4.70;99.90
61253;DHT22;47127;47.516;8.596;2023-04-06T00:13:51;4.70;99.90
61253;DHT22;47127;47.516;8.596;2023-04-06T00:16:17;4.70;99.90
61253;DHT22;47127;47.516;8.596;2023-04-06T00:18:43;4.70;99.90
61253;DHT22;47127;47.516;8.596;2023-04-06T00:21:11;4.60;99.90
61253;DHT22;47127;47.516;8.596;2023-04-06T00:23:38;4.60;99.90
61253;DHT22;47127;47.516;8.596;2023-04-06T00:26:04;4.40;99.90
61253;DHT22;47127;47.516;8.596;2023-04-06T00:28:29;4.10;99.90
61253;DHT22;47127;47.516;8.596;2023-04-06T00:30:55;4.00;99.90
61253;DHT22;47127;47.516;8.596;2023-04-06T00:33:21;3.90;99.90
61253;DHT22;47127;47.516;8.596;2023-04-06T00:35:47;4.00;99.90
61253;DHT22;47127;47.516;8.596;2023-04-06T00:38:14;4.10;99.90
61253;DHT22;47127;47.516;8.596;2023-04-06T00:40:40;4.00;99.90
61253;DHT22;47127;47.516;8.596;2023-04-06T00:43:07;4.00;99.90
61253;DHT22;47127;47.516;8.596;2023-04-06T00:45:35;4.00;99.90
61253;DHT22;47127;47.516;8.596;2023-04-06T00:48:01;4.00;99.90
61253;DHT22;47127;47.516;8.596;2023-04-06T00:50:30;3.80;99.90
61253;DHT22;47127;47.516;8.596;2023-04-06T00:52:56;3.90;99.90
61253;DHT22;47127;47.516;8.596;2023-04-06T00:55:21;4.00;99.90
61253;DHT22;47127;47.516;8.596;2023-04-06T00:57:47;3.90;99.90
61253;DHT22;47127;47.516;8.596;2023-04-06T01:00:14;3.90;99.90
61253;DHT22;47127;47.516;8.596;2023-04-06T01:02:39;3.80;99.90
61253;DHT22;47127;47.516;8.596;2023-04-06T01:05:06;3.80;99.90
61253;DHT22;47127;47.516;8.596;2023-04-06T01:07:31;3.80;99.90
61253;DHT22;47127;47.516;8.596;2023-04-06T01:09:57;3.90;99.90
61253;DHT22;47127;47.516;8.596;2023-04-06T01:12:23;3.90;99.90
61253;DHT22;47127;47.516;8.596;2023-04-06T01:14:50;5.40;99.90
61253;DHT22;47127;47.516;8.596;2023-04-06T01:17:15;3.90;99.90
61253;DHT22;47127;47.516;8.596;2023-04-06T01:19:41;3.90;99.90
61253;DHT22;47127;47.516;8.596;2023-04-06T01:22:07;3.90;99.90
61253;DHT22;47127;47.516;8.596;2023-04-06T01:24:33;4.00;99.90
61253;DHT22;47127;47.516;8.596;2023-04-06T01:26:59;4.10;99.90
61253;DHT22;47127;47.516;8.596;2023-04-06T01:29:26;4.10;99.90
61253;DHT22;47127;47.516;8.596;2023-04-06T01:31:53;4.00;99.80
61253;DHT22;47127;47.516;8.596;2023-04-06T01:34:18;3.80;99.90
61253;DHT22;47127;47.516;8.596;2023-04-06T01:36:44;3.80;99.90
61253;DHT22;47127;47.516;8.596;2023-04-06T01:39:10;3.70;99.90
61253;DHT22;47127;47.516;8.596;2023-04-06T01:41:35;3.60;99.90
61253;DHT22;47127;47.516;8.596;2023-04-06T01:44:02;3.50;99.90
61253;DHT22;47127;47.516;8.596;2023-04-06T01:46:28;3.50;99.90
61253;DHT22;47127;47.516;8.596;2023-04-06T01:48:53;3.40;99.90
61253;DHT22;47127;47.516;8.596;2023-04-06T01:51:19;3.40;99.90
61253;DHT22;47127;47.516;8.596;2023-04-06T01:53:45;3.30;99.90
61253;DHT22;47127;47.516;8.596;2023-04-06T01:56:10;3.40;99.90
61253;DHT22;47127;47.516;8.596;2023-04-06T01:58:37;3.40;99.90
61253;DHT22;47127;47.516;8.596;2023-04-06T02:01:03;3.50;99.90
61253;DHT22;47127;47.516;8.596;2023-04-06T02:03:29;3.50;99.90
61253;DHT22;47127;47.516;8.596;2023-04-06T02:05:54;3.40;99.90
61253;DHT22;47127;47.516;8.596;2023-04-06T02:08:20;3.40;99.90
61253;DHT22;47127;47.516;8.596;2023-04-06T02:10:46;3.20;99.90
61253;DHT22;47127;47.516;8.596;2023-04-06T02:13:11;3.10;99.90
61253;DHT22;47127;47.516;8.596;2023-04-06T02:15:37;2.90;99.90
61253;DHT22;47127;47.516;8.596;2023-04-06T02:18:02;2.90;99.90
61253;DHT22;47127;47.516;8.596;2023-04-06T02:20:28;2.90;99.90
61253;DHT22;47127;47.516;8.596;2023-04-06T02:22:56;3.10;99.90
61253;DHT22;47127;47.516;8.596;2023-04-06T02:25:22;3.20;99.90
61253;DHT22;47127;47.516;8.596;2023-04-06T02:27:47;3.20;99.90
61253;DHT22;47127;47.516;8.596;2023-04-06T02:30:13;3.10;99.90
61253;DHT22;47127;47.516;8.596;2023-04-06T02:32:39;3.00;99.90
61253;DHT22;47127;47.516;8.596;2023-04-06T02:35:06;3.00;99.90
61253;DHT22;47127;47.516;8.596;2023-04-06T02:37:31;3.00;99.90
61253;DHT22;47127;47.516;8.596;2023-04-06T02:39:57;3.00;99.90
61253;DHT22;47127;47.516;8.596;2023-04-06T02:42:23;3.00;99.90
61253;DHT22;47127;47.516;8.596;2023-04-06T02:44:48;2.90;99.90
61253;DHT22;47127;47.516;8.596;2023-04-06T02:47:14;2.90;99.90
61253;DHT22;47127;47.516;8.596;2023-04-06T02:49:40;3.00;99.90
61253;DHT22;47127;47.516;8.596;2023-04-06T02:52:06;2.90;99.90
61253;DHT22;47127;47.516;8.596;2023-04-06T02:54:31;3.00;99.90
61253;DHT22;47127;47.516;8.596;2023-04-06T02:56:58;3.40;99.90
61253;DHT22;47127;47.516;8.596;2023-04-06T02:59:23;3.00;99.90
61253;DHT22;47127;47.516;8.596;2023-04-06T03:01:49;3.00;99.90
61253;DHT22;47127;47.516;8.596;2023-04-06T03:04:15;3.00;99.90
61253;DHT22;47127;47.516;8.596;2023-04-06T03:06:41;3.10;99.90
61253;DHT22;47127;47.516;8.596;2023-04-06T03:09:07;3.60;99.90
61253;DHT22;47127;47.516;8.596;2023-04-06T03:11:33;3.20;99.90
61253;DHT22;47127;47.516;8.596;2023-04-06T03:13:58;3.20;99.90
61253;DHT22;47127;47.516;8.596;2023-04-06T03:16:24;3.20;99.90
61253;DHT22;47127;47.516;8.596;2023-04-06T03:18:50;4.30;99.90
61253;DHT22;47127;47.516;8.596;2023-04-06T03:21:16;3.10;99.90
61253;DHT22;47127;47.516;8.596;2023-04-06T03:23:42;3.10;99.90
61253;DHT22;47127;47.516;8.596;2023-04-06T03:26:08;3.00;99.90
61253;DHT22;47127;47.516;8.596;2023-04-06T03:28:33;3.00;99.90
61253;DHT22;47127;47.516;8.596;2023-04-06T03:30:59;2.90;99.90
61253;DHT22;47127;47.516;8.596;2023-04-06T03:33:25;2.90;99.90
61253;DHT22;47127;47.516;8.596;2023-04-06T03:35:54;2.90;99.90
61253;DHT22;47127;47.516;8.596;2023-04-06T03:38:19;2.80;99.90
61253;DHT22;47127;47.516;8.596;2023-04-06T03:40:45;2.80;99.90
61253;DHT22;47127;47.516;8.596;2023-04-06T03:43:14;2.90;99.90
61253;DHT22;47127;47.516;8.596;2023-04-06T03:45:39;2.90;99.90
61253;DHT22;47127;47.516;8.596;2023-04-06T03:48:05;2.80;99.90
61253;DHT22;47127;47.516;8.596;2023-04-06T03:50:31;2.70;99.90
61253;DHT22;47127;47.516;8.596;2023-04-06T03:52:56;2.80;99.90
61253;DHT22;47127;47.516;8.596;2023-04-06T03:55:22;2.80;99.90
61253;DHT22;47127;47.516;8.596;2023-04-06T03:57:49;2.90;99.90
61253;DHT22;47127;47.516;8.596;2023-04-06T04:00:15;3.00;99.90
61253;DHT22;47127;47.516;8.596;2023-04-06T04:02:42;3.00;99.90
61253;DHT22;47127;47.516;8.596;2023-04-06T04:05:08;2.90;99.90
61253;DHT22;47127;47.516;8.596;2023-04-06T04:07:34;2.90;99.90
61253;DHT22;47127;47.516;8.596;2023-04-06T04:10:00;2.90;99.90
61253;DHT22;47127;47.516;8.596;2023-04-06T04:12:25;2.70;99.90
61253;DHT22;47127;47.516;8.596;2023-04-06T04:14:51;2.60;99.90
61253;DHT22;47127;47.516;8.596;2023-04-06T04:17:16;2.50;99.90
61253;DHT22;47127;47.516;8.596;2023-04-06T04:19:42;2.40;99.90
61253;DHT22;47127;47.516;8.596;2023-04-06T04:22:08;2.30;99.90
61253;DHT22;47127;47.516;8.596;2023-04-06T04:24:33;2.30;99.90
61253;DHT22;47127;47.516;8.596;2023-04-06T04:26:59;2.50;99.90
61253;DHT22;47127;47.516;8.596;2023-04-06T04:29:26;2.60;99.90
61253;DHT22;47127;47.516;8.596;2023-04-06T04:31:52;2.50;99.90
61253;DHT22;47127;47.516;8.596;2023-04-06T04:34:18;2.60;99.90
61253;DHT22;47127;47.516;8.596;2023-04-06T04:36:46;2.60;99.90
61253;DHT22;47127;47.516;8.596;2023-04-06T04:39:12;2.60;99.90
61253;DHT22;47127;47.516;8.596;2023-04-06T04:41:39;2.60;99.90
61253;DHT22;47127;47.516;8.596;2023-04-06T04:44:05;2.60;99.90
61253;DHT22;47127;47.516;8.596;2023-04-06T04:46:30;2.50;99.90
61253;DHT22;47127;47.516;8.596;2023-04-06T04:48:56;2.50;99.90
61253;DHT22;47127;47.516;8.596;2023-04-06T04:51:22;2.40;99.90
61253;DHT22;47127;47.516;8.596;2023-04-06T04:53:47;2.40;99.90
61253;DHT22;47127;47.516;8.596;2023-04-06T04:56:13;2.40;99.90
61253;DHT22;47127;47.516;8.596;2023-04-06T04:58:38;2.50;99.90
61253;DHT22;47127;47.516;8.596;2023-04-06T05:01:04;2.60;99.90
61253;DHT22;47127;47.516;8.596;2023-04-06T05:03:30;2.50;99.90
61253;DHT22;47127;47.516;8.596;2023-04-06T05:05:55;2.70;99.90
61253;DHT22;47127;47.516;8.596;2023-04-06T05:08:21;2.70;99.90
61253;DHT22;47127;47.516;8.596;2023-04-06T05:10:47;2.80;99.90
61253;DHT22;47127;47.516;8.596;2023-04-06T05:13:14;2.80;99.90
61253;DHT22;47127;47.516;8.596;2023-04-06T05:15:40;2.70;99.90
61253;DHT22;47127;47.516;8.596;2023-04-06T05:18:07;2.60;99.90
61253;DHT22;47127;47.516;8.596;2023-04-06T05:20:33;2.60;99.90
61253;DHT22;47127;47.516;8.596;2023-04-06T05:22:59;2.40;99.90
61253;DHT22;47127;47.516;8.596;2023-04-06T05:25:25;2.30;99.90
61253;DHT22;47127;47.516;8.596;2023-04-06T05:27:52;2.40;99.90
61253;DHT22;47127;47.516;8.596;2023-04-06T05:30:17;2.30;99.90
61253;DHT22;47127;47.516;8.596;2023-04-06T05:32:43;2.30;99.90
61253;DHT22;47127;47.516;8.596;2023-04-06T05:35:10;2.30;99.90
61253;DHT22;47127;47.516;8.596;2023-04-06T05:37:36;2.30;99.90
61253;DHT22;47127;47.516;8.596;2023-04-06T05:40:03;2.30;99.90
61253;DHT22;47127;47.516;8.596;2023-04-06T05:42:39;2.40;99.90
61253;DHT22;47127;47.516;8.596;2023-04-06T05:45:05;2.30;99.90
61253;DHT22;47127;47.516;8.596;2023-04-06T05:47:31;2.30;99.90
61253;DHT22;47127;47.516;8.596;2023-04-06T05:49:56;2.40;99.90
61253;DHT22;47127;47.516;8.596;2023-04-06T05:52:22;2.40;99.90
61253;DHT22;47127;47.516;8.596;2023-04-06T05:54:48;2.50;99.90
61253;DHT22;47127;47.516;8.596;2023-04-06T05:57:14;2.60;99.90
61253;DHT22;47127;47.516;8.596;2023-04-06T05:59:42;2.60;99.90
61253;DHT22;47127;47.516;8.596;2023-04-06T06:02:07;2.70;99.90
61253;DHT22;47127;47.516;8.596;2023-04-06T06:04:33;2.70;99.90
61253;DHT22;47127;47.516;8.596;2023-04-06T06:06:58;2.80;99.90
61253;DHT22;47127;47.516;8.596;2023-04-06T06:09:24;2.90;99.90
61253;DHT22;47127;47.516;8.596;2023-04-06T06:11:51;3.00;99.90
61253;DHT22;47127;47.516;8.596;2023-04-06T06:14:16;3.10;99.90
61253;DHT22;47127;47.516;8.596;2023-04-06T06:16:42;3.30;99.90
61253;DHT22;47127;47.516;8.596;2023-04-06T06:19:09;3.40;99.90
61253;DHT22;47127;47.516;8.596;2023-04-06T06:21:35;3.50;99.90
61253;DHT22;47127;47.516;8.596;2023-04-06T06:24:01;3.30;99.90
61253;DHT22;47127;47.516;8.596;2023-04-06T06:26:27;3.40;99.90
61253;DHT22;47127;47.516;8.596;2023-04-06T06:28:52;3.40;99.90
61253;DHT22;47127;47.516;8.596;2023-04-06T06:31:18;3.40;99.90
61253;DHT22;47127;47.516;8.596;2023-04-06T06:33:49;3.50;99.90
61253;DHT22;47127;47.516;8.596;2023-04-06T06:36:44;3.60;99.90
61253;DHT22;47127;47.516;8.596;2023-04-06T06:39:09;3.70;99.90
61253;DHT22;47127;47.516;8.596;2023-04-06T06:41:35;3.80;99.90
61253;DHT22;47127;47.516;8.596;2023-04-06T06:44:01;3.70;99.90
61253;DHT22;47127;47.516;8.596;2023-04-06T06:46:28;3.80;99.90
61253;DHT22;47127;47.516;8.596;2023-04-06T06:48:53;3.90;99.90
61253;DHT22;47127;47.516;8.596;2023-04-06T06:51:19;4.10;99.70
61253;DHT22;47127;47.516;8.596;2023-04-06T06:53:45;4.10;99.50
61253;DHT22;47127;47.516;8.596;2023-04-06T06:56:14;4.20;99.90
61253;DHT22;47127;47.516;8.596;2023-04-06T06:58:41;4.20;99.90
61253;DHT22;47127;47.516;8.596;2023-04-06T07:01:08;4.20;99.90
61253;DHT22;47127;47.516;8.596;2023-04-06T07:03:35;4.40;99.90
61253;DHT22;47127;47.516;8.596;2023-04-06T07:06:01;4.60;99.90
61253;DHT22;47127;47.516;8.596;2023-04-06T07:08:27;4.70;99.80
61253;DHT22;47127;47.516;8.596;2023-04-06T07:10:53;4.70;99.60
61253;DHT22;47127;47.516;8.596;2023-04-06T07:13:21;4.70;99.70
61253;DHT22;47127;47.516;8.596;2023-04-06T07:15:51;4.80;99.60
61253;DHT22;47127;47.516;8.596;2023-04-06T07:18:18;5.00;99.70
61253;DHT22;47127;47.516;8.596;2023-04-06T07:20:44;5.10;99.50
61253;DHT22;47127;47.516;8.596;2023-04-06T07:23:09;5.20;99.40
61253;DHT22;47127;47.516;8.596;2023-04-06T07:25:35;5.30;99.30
61253;DHT22;47127;47.516;8.596;2023-04-06T07:28:02;5.30;99.10
61253;DHT22;47127;47.516;8.596;2023-04-06T07:30:28;5.50;98.90
61253;DHT22;47127;47.516;8.596;2023-04-06T07:32:54;5.60;98.60
61253;DHT22;47127;47.516;8.596;2023-04-06T07:35:25;5.80;98.50
61253;DHT22;47127;47.516;8.596;2023-04-06T07:37:53;5.80;98.20
61253;DHT22;47127;47.516;8.596;2023-04-06T07:40:19;5.90;98.00
61253;DHT22;47127;47.516;8.596;2023-04-06T07:42:45;6.00;97.70
61253;DHT22;47127;47.516;8.596;2023-04-06T07:45:11;6.20;97.70
61253;DHT22;47127;47.516;8.596;2023-04-06T07:47:37;6.30;97.90
61253;DHT22;47127;47.516;8.596;2023-04-06T07:50:03;6.40;97.80
61253;DHT22;47127;47.516;8.596;2023-04-06T07:52:28;6.50;97.50
61253;DHT22;47127;47.516;8.596;2023-04-06T07:54:54;6.60;97.10
61253;DHT22;47127;47.516;8.596;2023-04-06T07:57:20;6.60;96.90
61253;DHT22;47127;47.516;8.596;2023-04-06T07:59:46;6.70;96.70
61253;DHT22;47127;47.516;8.596;2023-04-06T08:02:12;6.80;96.40
61253;DHT22;47127;47.516;8.596;2023-04-06T08:04:38;6.90;96.10
61253;DHT22;47127;47.516;8.596;2023-04-06T08:07:03;7.00;96.10
61253;DHT22;47127;47.516;8.596;2023-04-06T08:09:47;7.00;94.90
61253;DHT22;47127;47.516;8.596;2023-04-06T08:12:13;7.10;94.60
61253;DHT22;47127;47.516;8.596;2023-04-06T08:14:40;7.30;94.90
61253;DHT22;47127;47.516;8.596;2023-04-06T08:17:06;7.30;94.80
61253;DHT22;47127;47.516;8.596;2023-04-06T08:19:35;7.50;94.40
61253;DHT22;47127;47.516;8.596;2023-04-06T08:22:01;7.60;94.30
61253;DHT22;47127;47.516;8.596;2023-04-06T08:24:27;7.70;93.50
61253;DHT22;47127;47.516;8.596;2023-04-06T08:26:53;7.70;93.10
61253;DHT22;47127;47.516;8.596;2023-04-06T08:29:19;7.80;92.30
61253;DHT22;47127;47.516;8.596;2023-04-06T08:31:44;8.00;92.30
61253;DHT22;47127;47.516;8.596;2023-04-06T08:34:10;8.10;91.60
61253;DHT22;47127;47.516;8.596;2023-04-06T08:36:36;8.30;91.00
61253;DHT22;47127;47.516;8.596;2023-04-06T08:39:02;8.30;90.90
61253;DHT22;47127;47.516;8.596;2023-04-06T08:41:28;8.40;90.60
61253;DHT22;47127;47.516;8.596;2023-04-06T08:43:59;8.40;90.10
61253;DHT22;47127;47.516;8.596;2023-04-06T08:46:25;8.50;89.50
61253;DHT22;47127;47.516;8.596;2023-04-06T08:49:01;8.60;88.70
61253;DHT22;47127;47.516;8.596;2023-04-06T08:51:29;8.50;87.50
61253;DHT22;47127;47.516;8.596;2023-04-06T08:54:13;8.60;87.10
61253;DHT22;47127;47.516;8.596;2023-04-06T08:56:39;8.60;86.70
61253;DHT22;47127;47.516;8.596;2023-04-06T08:59:06;8.80;86.00
61253;DHT22;47127;47.516;8.596;2023-04-06T09:01:34;9.00;85.40
61253;DHT22;47127;47.516;8.596;2023-04-06T09:04:02;9.10;86.30
61253;DHT22;47127;47.516;8.596;2023-04-06T09:06:30;9.10;84.80
61253;DHT22;47127;47.516;8.596;2023-04-06T09:08:57;9.10;84.30
61253;DHT22;47127;47.516;8.596;2023-04-06T09:11:23;9.00;81.30
61253;DHT22;47127;47.516;8.596;2023-04-06T09:13:56;9.10;85.00
61253;DHT22;47127;47.516;8.596;2023-04-06T09:16:23;9.10;86.00
61253;DHT22;47127;47.516;8.596;2023-04-06T09:18:50;9.20;82.50
61253;DHT22;47127;47.516;8.596;2023-04-06T09:21:17;9.40;83.90
61253;DHT22;47127;47.516;8.596;2023-04-06T09:23:44;9.50;80.00
61253;DHT22;47127;47.516;8.596;2023-04-06T09:26:17;9.50;79.30
61253;DHT22;47127;47.516;8.596;2023-04-06T09:31:15;9.50;79.20
61253;DHT22;47127;47.516;8.596;2023-04-06T09:33:43;9.50;74.60
61253;DHT22;47127;47.516;8.596;2023-04-06T09:36:09;9.70;74.80
61253;DHT22;47127;47.516;8.596;2023-04-06T09:38:52;9.80;72.70
61253;DHT22;47127;47.516;8.596;2023-04-06T09:41:37;10.10;76.20
61253;DHT22;47127;47.516;8.596;2023-04-06T09:44:11;10.30;73.70
61253;DHT22;47127;47.516;8.596;2023-04-06T09:46:41;10.40;73.20
61253;DHT22;47127;47.516;8.596;2023-04-06T09:49:08;10.40;69.40
61253;DHT22;47127;47.516;8.596;2023-04-06T09:52:00;10.30;69.50
61253;DHT22;47127;47.516;8.596;2023-04-06T09:54:28;10.40;71.20
61253;DHT22;47127;47.516;8.596;2023-04-06T09:57:07;10.40;67.30
61253;DHT22;47127;47.516;8.596;2023-04-06T10:02:05;10.60;67.20
61253;DHT22;47127;47.516;8.596;2023-04-06T10:07:00;10.80;65.80
61253;DHT22;47127;47.516;8.596;2023-04-06T10:09:29;10.90;65.80
61253;DHT22;47127;47.516;8.596;2023-04-06T10:12:05;10.80;62.60
61253;DHT22;47127;47.516;8.596;2023-04-06T10:14:33;10.80;63.50
61253;DHT22;47127;47.516;8.596;2023-04-06T10:17:02;10.80;63.50
61253;DHT22;47127;47.516;8.596;2023-04-06T10:19:37;10.80;64.20
61253;DHT22;47127;47.516;8.596;2023-04-06T10:22:08;10.60;61.30
61253;DHT22;47127;47.516;8.596;2023-04-06T10:24:36;10.70;59.20
61253;DHT22;47127;47.516;8.596;2023-04-06T10:27:06;10.90;60.30
61253;DHT22;47127;47.516;8.596;2023-04-06T10:29:45;10.80;62.50
61253;DHT22;47127;47.516;8.596;2023-04-06T10:32:12;11.10;61.20
61253;DHT22;47127;47.516;8.596;2023-04-06T10:34:38;11.30;61.20
61253;DHT22;47127;47.516;8.596;2023-04-06T10:37:13;11.10;62.60
61253;DHT22;47127;47.516;8.596;2023-04-06T10:40:00;11.40;60.10
61253;DHT22;47127;47.516;8.596;2023-04-06T10:42:36;11.50;60.80
61253;DHT22;47127;47.516;8.596;2023-04-06T10:45:07;11.30;57.80
61253;DHT22;47127;47.516;8.596;2023-04-06T10:47:43;11.30;58.40
61253;DHT22;47127;47.516;8.596;2023-04-06T10:50:11;11.40;58.20
61253;DHT22;47127;47.516;8.596;2023-04-06T10:52:39;11.50;57.00
61253;DHT22;47127;47.516;8.596;2023-04-06T10:55:06;11.70;57.90
61253;DHT22;47127;47.516;8.596;2023-04-06T10:57:35;11.50;58.20
61253;DHT22;47127;47.516;8.596;2023-04-06T11:00:03;11.60;57.20
61253;DHT22;47127;47.516;8.596;2023-04-06T11:02:29;11.40;56.50
61253;DHT22;47127;47.516;8.596;2023-04-06T11:04:58;11.50;59.10
61253;DHT22;47127;47.516;8.596;2023-04-06T11:07:25;11.80;57.70
61253;DHT22;47127;47.516;8.596;2023-04-06T11:09:53;12.10;56.60
61253;DHT22;47127;47.516;8.596;2023-04-06T11:12:26;12.20;57.70
61253;DHT22;47127;47.516;8.596;2023-04-06T11:14:56;12.10;54.20
61253;DHT22;47127;47.516;8.596;2023-04-06T11:17:33;12.00;54.40
61253;DHT22;47127;47.516;8.596;2023-04-06T11:19:59;11.90;55.00
61253;DHT22;47127;47.516;8.596;2023-04-06T11:22:26;12.00;55.40
61253;DHT22;47127;47.516;8.596;2023-04-06T11:24:52;11.90;55.10
61253;DHT22;47127;47.516;8.596;2023-04-06T11:27:19;12.20;54.30
61253;DHT22;47127;47.516;8.596;2023-04-06T11:29:44;12.50;54.40
61253;DHT22;47127;47.516;8.596;2023-04-06T11:32:21;12.70;54.80
61253;DHT22;47127;47.516;8.596;2023-04-06T11:34:48;12.90;51.20
61253;DHT22;47127;47.516;8.596;2023-04-06T11:37:14;13.00;50.90
61253;DHT22;47127;47.516;8.596;2023-04-06T11:39:51;12.60;52.20
61253;DHT22;47127;47.516;8.596;2023-04-06T11:42:28;12.20;52.10
61253;DHT22;47127;47.516;8.596;2023-04-06T11:44:58;12.40;52.20
61253;DHT22;47127;47.516;8.596;2023-04-06T11:47:29;12.50;51.60
61253;DHT22;47127;47.516;8.596;2023-04-06T11:49:55;12.50;51.20
61253;DHT22;47127;47.516;8.596;2023-04-06T11:52:26;12.40;52.30
61253;DHT22;47127;47.516;8.596;2023-04-06T11:54:53;12.60;50.70
61253;DHT22;47127;47.516;8.596;2023-04-06T11:57:20;12.80;51.00
61253;DHT22;47127;47.516;8.596;2023-04-06T11:59:46;13.00;50.80
61253;DHT22;47127;47.516;8.596;2023-04-06T12:02:13;13.50;50.60
61253;DHT22;47127;47.516;8.596;2023-04-06T12:04:39;13.90;51.70
61253;DHT22;47127;47.516;8.596;2023-04-06T12:07:05;13.90;49.90
61253;DHT22;47127;47.516;8.596;2023-04-06T12:09:31;14.00;47.10
61253;DHT22;47127;47.516;8.596;2023-04-06T12:11:57;14.20;48.60
61253;DHT22;47127;47.516;8.596;2023-04-06T12:14:23;14.20;49.50
61253;DHT22;47127;47.516;8.596;2023-04-06T12:16:49;13.90;48.20
61253;DHT22;47127;47.516;8.596;2023-04-06T12:19:16;14.00;48.00
61253;DHT22;47127;47.516;8.596;2023-04-06T12:21:41;13.60;51.10
61253;DHT22;47127;47.516;8.596;2023-04-06T12:24:08;14.00;49.10
61253;DHT22;47127;47.516;8.596;2023-04-06T12:26:34;14.30;48.00
61253;DHT22;47127;47.516;8.596;2023-04-06T12:29:00;14.30;48.00
61253;DHT22;47127;47.516;8.596;2023-04-06T12:31:32;14.20;47.90
61253;DHT22;47127;47.516;8.596;2023-04-06T12:33:58;14.50;47.10
61253;DHT22;47127;47.516;8.596;2023-04-06T12:36:25;14.30;47.80
61253;DHT22;47127;47.516;8.596;2023-04-06T12:38:51;14.40;48.50
61253;DHT22;47127;47.516;8.596;2023-04-06T12:41:18;14.50;48.90
61253;DHT22;47127;47.516;8.596;2023-04-06T12:43:44;14.70;48.80
61253;DHT22;47127;47.516;8.596;2023-04-06T12:46:11;14.50;49.70
61253;DHT22;47127;47.516;8.596;2023-04-06T12:48:37;14.40;51.00
61253;DHT22;47127;47.516;8.596;2023-04-06T12:51:05;14.40;47.20
61253;DHT22;47127;47.516;8.596;2023-04-06T12:53:31;14.70;46.30
61253;DHT22;47127;47.516;8.596;2023-04-06T12:55:58;14.50;49.60
61253;DHT22;47127;47.516;8.596;2023-04-06T12:58:24;14.50;46.80
61253;DHT22;47127;47.516;8.596;2023-04-06T13:00:53;14.50;48.40
61253;DHT22;47127;47.516;8.596;2023-04-06T13:03:20;14.70;46.60
61253;DHT22;47127;47.516;8.596;2023-04-06T13:05:47;14.60;47.30
61253;DHT22;47127;47.516;8.596;2023-04-06T13:08:14;14.50;45.90
61253;DHT22;47127;47.516;8.596;2023-04-06T13:10:50;14.40;47.70
61253;DHT22;47127;47.516;8.596;2023-04-06T13:13:21;14.60;46.00
61253;DHT22;47127;47.516;8.596;2023-04-06T13:15:48;14.70;45.90
61253;DHT22;47127;47.516;8.596;2023-04-06T13:18:14;14.80;48.10
61253;DHT22;47127;47.516;8.596;2023-04-06T13:20:41;14.40;45.20
61253;DHT22;47127;47.516;8.596;2023-04-06T13:23:07;14.40;45.60
61253;DHT22;47127;47.516;8.596;2023-04-06T13:25:33;14.40;45.10
61253;DHT22;47127;47.516;8.596;2023-04-06T13:27:59;14.80;45.30
61253;DHT22;47127;47.516;8.596;2023-04-06T13:30:26;14.90;43.20
61253;DHT22;47127;47.516;8.596;2023-04-06T13:32:52;15.20;42.00
61253;DHT22;47127;47.516;8.596;2023-04-06T13:35:18;15.10;46.60
61253;DHT22;47127;47.516;8.596;2023-04-06T13:37:44;14.80;45.10
61253;DHT22;47127;47.516;8.596;2023-04-06T13:40:11;14.70;44.00
61253;DHT22;47127;47.516;8.596;2023-04-06T13:42:36;14.90;43.50
61253;DHT22;47127;47.516;8.596;2023-04-06T13:45:05;15.00;44.40
61253;DHT22;47127;47.516;8.596;2023-04-06T13:47:31;14.70;45.00
61253;DHT22;47127;47.516;8.596;2023-04-06T13:49:57;14.70;46.60
61253;DHT22;47127;47.516;8.596;2023-04-06T13:52:24;14.70;44.50
61253;DHT22;47127;47.516;8.596;2023-04-06T13:54:50;14.90;45.70
61253;DHT22;47127;47.516;8.596;2023-04-06T13:57:15;14.90;46.20
61253;DHT22;47127;47.516;8.596;2023-04-06T13:59:41;14.70;45.30
61253;DHT22;47127;47.516;8.596;2023-04-06T14:02:08;14.60;45.30
61253;DHT22;47127;47.516;8.596;2023-04-06T14:04:35;14.60;45.00
61253;DHT22;47127;47.516;8.596;2023-04-06T14:07:01;14.50;44.50
61253;DHT22;47127;47.516;8.596;2023-04-06T14:09:28;14.40;44.90
61253;DHT22;47127;47.516;8.596;2023-04-06T14:11:54;14.40;45.70
61253;DHT22;47127;47.516;8.596;2023-04-06T14:14:20;14.40;45.80
61253;DHT22;47127;47.516;8.596;2023-04-06T14:16:49;14.20;44.40
61253;DHT22;47127;47.516;8.596;2023-04-06T14:19:16;14.50;46.40
61253;DHT22;47127;47.516;8.596;2023-04-06T14:21:44;14.60;44.00
61253;DHT22;47127;47.516;8.596;2023-04-06T14:24:11;14.70;44.70
61253;DHT22;47127;47.516;8.596;2023-04-06T14:26:38;14.70;44.40
61253;DHT22;47127;47.516;8.596;2023-04-06T14:29:04;14.70;45.40
61253;DHT22;47127;47.516;8.596;2023-04-06T14:31:30;14.90;45.90
61253;DHT22;47127;47.516;8.596;2023-04-06T14:33:56;14.90;44.00
61253;DHT22;47127;47.516;8.596;2023-04-06T14:36:22;14.60;44.70
61253;DHT22;47127;47.516;8.596;2023-04-06T14:38:47;14.70;44.60
61253;DHT22;47127;47.516;8.596;2023-04-06T14:41:17;14.40;44.60
61253;DHT22;47127;47.516;8.596;2023-04-06T14:43:44;14.30;45.80
61253;DHT22;47127;47.516;8.596;2023-04-06T14:46:09;14.40;44.10
61253;DHT22;47127;47.516;8.596;2023-04-06T14:48:35;14.40;44.50
61253;DHT22;47127;47.516;8.596;2023-04-06T14:51:01;14.70;44.70
61253;DHT22;47127;47.516;8.596;2023-04-06T14:53:29;14.50;44.90
61253;DHT22;47127;47.516;8.596;2023-04-06T14:55:55;14.20;45.70
61253;DHT22;47127;47.516;8.596;2023-04-06T14:58:22;14.40;45.00
61253;DHT22;47127;47.516;8.596;2023-04-06T15:00:48;14.60;44.80
61253;DHT22;47127;47.516;8.596;2023-04-06T15:03:14;14.60;45.30
61253;DHT22;47127;47.516;8.596;2023-04-06T15:05:40;14.50;45.10
61253;DHT22;47127;47.516;8.596;2023-04-06T15:08:06;14.30;45.00
61253;DHT22;47127;47.516;8.596;2023-04-06T15:10:34;14.00;45.90
61253;DHT22;47127;47.516;8.596;2023-04-06T15:13:00;13.50;46.60
61253;DHT22;47127;47.516;8.596;2023-04-06T15:15:26;13.30;47.00
61253;DHT22;47127;47.516;8.596;2023-04-06T15:17:51;13.10;47.30
61253;DHT22;47127;47.516;8.596;2023-04-06T15:20:17;13.20;47.70
61253;DHT22;47127;47.516;8.596;2023-04-06T15:22:42;13.20;48.60
61253;DHT22;47127;47.516;8.596;2023-04-06T15:25:08;13.00;49.00
61253;DHT22;47127;47.516;8.596;2023-04-06T15:27:34;13.00;48.50
61253;DHT22;47127;47.516;8.596;2023-04-06T15:29:59;12.70;48.60
61253;DHT22;47127;47.516;8.596;2023-04-06T15:32:25;12.80;48.80
61253;DHT22;47127;47.516;8.596;2023-04-06T15:34:52;13.00;49.80
61253;DHT22;47127;47.516;8.596;2023-04-06T15:37:18;13.20;49.10
61253;DHT22;47127;47.516;8.596;2023-04-06T15:39:44;13.20;49.10
61253;DHT22;47127;47.516;8.596;2023-04-06T15:42:10;13.20;49.00
61253;DHT22;47127;47.516;8.596;2023-04-06T15:44:35;13.10;49.40
61253;DHT22;47127;47.516;8.596;2023-04-06T15:47:01;12.90;50.10